IN-0012 weather

Public forecast

Using degrees Celsius for public forecast. Weather courtesy of forecast.io.

Closest aviation weather report (METAR) to Pakyong Airport (Under Construction)

Closest report is Bagdogra Airport, 35.8 nm (66.3 km) SSW. Retrieved 2020/08/09 12:30 UTC (59 minutes ago):

VEBD 091230Z 02004KT 6000 FEW025 FEW025TCU SCT100 BKN250 30/25 Q1000 NOSIG

Closest aviation forecast (TAF) to Pakyong Airport (Under Construction)

Closest forecast is Bagdogra Airport, 35.8 nm (66.3 km) SSW. Retrieved 2020/08/09 12:30 UTC (59 minutes ago):

TAF VEBD 090930Z 0912/0924 10005KT 6000 SCT025 SCT090 TEMPO 0915/0919 2000 TSRA SCT025 FEW030TCU/CB BKN090 TEMPO 0920/0924 3000 RABR SCT008 SCT012 BKN050